sensor_id;sensor_type;location;lat;lon;timestamp;pressure;altitude;pressure_sealevel;temperature;humidity
30897;BME280;64229;52.246;21.054;2023-04-25T00:00:53;99254.66;;;13.43;75.81
30897;BME280;64229;52.246;21.054;2023-04-25T00:03:20;99247.50;;;13.30;76.13
30897;BME280;64229;52.246;21.054;2023-04-25T00:05:46;99253.16;;;13.28;76.65
30897;BME280;64229;52.246;21.054;2023-04-25T00:08:11;99259.34;;;13.38;76.92
30897;BME280;64229;52.246;21.054;2023-04-25T00:10:36;99263.91;;;13.37;76.85
30897;BME280;64229;52.246;21.054;2023-04-25T00:13:02;99258.81;;;13.27;77.57
30897;BME280;64229;52.246;21.054;2023-04-25T00:15:28;99255.97;;;13.23;77.71
30897;BME280;64229;52.246;21.054;2023-04-25T00:17:56;99252.19;;;13.24;77.66
30897;BME280;64229;52.246;21.054;2023-04-25T00:20:21;99251.72;;;13.22;77.75
30897;BME280;64229;52.246;21.054;2023-04-25T00:22:48;99254.63;;;13.12;79.20
30897;BME280;64229;52.246;21.054;2023-04-25T00:25:14;99259.50;;;13.10;79.29
30897;BME280;64229;52.246;21.054;2023-04-25T00:27:39;99255.84;;;13.06;79.67
30897;BME280;64229;52.246;21.054;2023-04-25T00:30:05;99256.81;;;13.10;79.37
30897;BME280;64229;52.246;21.054;2023-04-25T00:32:30;99258.41;;;13.11;79.56
30897;BME280;64229;52.246;21.054;2023-04-25T00:34:56;99263.84;;;13.20;79.59
30897;BME280;64229;52.246;21.054;2023-04-25T00:37:23;99259.84;;;13.17;80.07
30897;BME280;64229;52.246;21.054;2023-04-25T00:39:48;99255.97;;;13.01;80.45
30897;BME280;64229;52.246;21.054;2023-04-25T00:42:14;99267.72;;;12.91;81.43
30897;BME280;64229;52.246;21.054;2023-04-25T00:44:40;99265.53;;;12.93;81.46
30897;BME280;64229;52.246;21.054;2023-04-25T00:47:07;99264.81;;;13.01;81.02
30897;BME280;64229;52.246;21.054;2023-04-25T00:49:33;99258.81;;;13.04;81.27
30897;BME280;64229;52.246;21.054;2023-04-25T00:51:58;99264.66;;;13.07;80.92
30897;BME280;64229;52.246;21.054;2023-04-25T00:54:24;99266.88;;;13.27;80.60
30897;BME280;64229;52.246;21.054;2023-04-25T00:56:50;99261.03;;;13.25;80.51
30897;BME280;64229;52.246;21.054;2023-04-25T00:59:16;99270.16;;;13.24;80.43
30897;BME280;64229;52.246;21.054;2023-04-25T01:01:43;99261.97;;;13.07;81.67
30897;BME280;64229;52.246;21.054;2023-04-25T01:04:08;99265.59;;;13.02;82.44
30897;BME280;64229;52.246;21.054;2023-04-25T01:06:34;99261.38;;;13.10;82.25
30897;BME280;64229;52.246;21.054;2023-04-25T01:09:01;99256.63;;;13.07;82.57
30897;BME280;64229;52.246;21.054;2023-04-25T01:11:27;99260.06;;;12.98;83.12
30897;BME280;64229;52.246;21.054;2023-04-25T01:13:52;99259.63;;;12.83;84.72
30897;BME280;64229;52.246;21.054;2023-04-25T01:16:18;99261.44;;;12.73;85.63
30897;BME280;64229;52.246;21.054;2023-04-25T01:18:46;99260.34;;;12.74;85.30
30897;BME280;64229;52.246;21.054;2023-04-25T01:21:12;99258.97;;;12.77;85.17
30897;BME280;64229;52.246;21.054;2023-04-25T01:23:39;99260.22;;;12.80;85.23
30897;BME280;64229;52.246;21.054;2023-04-25T01:26:06;99263.41;;;12.82;86.19
30897;BME280;64229;52.246;21.054;2023-04-25T01:28:33;99260.47;;;12.69;87.43
30897;BME280;64229;52.246;21.054;2023-04-25T01:30:59;99258.91;;;12.68;87.73
30897;BME280;64229;52.246;21.054;2023-04-25T01:33:25;99258.09;;;12.68;88.32
30897;BME280;64229;52.246;21.054;2023-04-25T01:35:50;99254.72;;;12.76;88.99
30897;BME280;64229;52.246;21.054;2023-04-25T01:38:16;99263.94;;;12.70;89.50
30897;BME280;64229;52.246;21.054;2023-04-25T01:40:41;99268.03;;;12.67;89.87
30897;BME280;64229;52.246;21.054;2023-04-25T01:43:09;99269.84;;;12.58;90.73
30897;BME280;64229;52.246;21.054;2023-04-25T01:45:37;99265.19;;;12.50;91.37
30897;BME280;64229;52.246;21.054;2023-04-25T01:48:07;99242.44;;;12.39;91.92
30897;BME280;64229;52.246;21.054;2023-04-25T01:50:32;99257.34;;;12.54;92.30
30897;BME280;64229;52.246;21.054;2023-04-25T01:52:58;99257.78;;;12.47;92.55
30897;BME280;64229;52.246;21.054;2023-04-25T01:55:23;99258.44;;;12.53;92.99
30897;BME280;64229;52.246;21.054;2023-04-25T01:57:49;99258.97;;;12.41;92.97
30897;BME280;64229;52.246;21.054;2023-04-25T02:00:14;99263.66;;;12.35;94.16
30897;BME280;64229;52.246;21.054;2023-04-25T02:02:40;99257.44;;;12.26;94.92
30897;BME280;64229;52.246;21.054;2023-04-25T02:05:06;99256.50;;;12.31;95.60
30897;BME280;64229;52.246;21.054;2023-04-25T02:07:32;99254.63;;;12.31;95.89
30897;BME280;64229;52.246;21.054;2023-04-25T02:09:57;99254.31;;;12.33;95.64
30897;BME280;64229;52.246;21.054;2023-04-25T02:12:23;99252.44;;;12.33;95.79
30897;BME280;64229;52.246;21.054;2023-04-25T02:14:49;99257.00;;;12.33;95.81
30897;BME280;64229;52.246;21.054;2023-04-25T02:17:15;99256.03;;;12.29;96.18
30897;BME280;64229;52.246;21.054;2023-04-25T02:19:41;99252.56;;;12.28;96.47
30897;BME280;64229;52.246;21.054;2023-04-25T02:22:06;99235.25;;;12.12;96.61
30897;BME280;64229;52.246;21.054;2023-04-25T02:24:31;99246.06;;;12.07;97.60
30897;BME280;64229;52.246;21.054;2023-04-25T02:26:58;99239.13;;;12.06;97.86
30897;BME280;64229;52.246;21.054;2023-04-25T02:29:24;99241.19;;;12.09;97.82
30897;BME280;64229;52.246;21.054;2023-04-25T02:31:49;99235.66;;;12.05;97.47
30897;BME280;64229;52.246;21.054;2023-04-25T02:34:14;99239.22;;;12.14;97.74
30897;BME280;64229;52.246;21.054;2023-04-25T02:36:40;99235.38;;;12.07;97.54
30897;BME280;64229;52.246;21.054;2023-04-25T02:39:06;99240.00;;;12.01;97.58
30897;BME280;64229;52.246;21.054;2023-04-25T02:41:31;99215.66;;;11.89;98.12
30897;BME280;64229;52.246;21.054;2023-04-25T02:43:56;99234.44;;;12.11;97.81
30897;BME280;64229;52.246;21.054;2023-04-25T02:46:22;99240.59;;;12.12;97.70
30897;BME280;64229;52.246;21.054;2023-04-25T02:48:47;99237.91;;;12.12;97.30
30897;BME280;64229;52.246;21.054;2023-04-25T02:51:13;99234.66;;;12.01;97.97
30897;BME280;64229;52.246;21.054;2023-04-25T02:53:39;99234.78;;;11.96;98.67
30897;BME280;64229;52.246;21.054;2023-04-25T02:56:04;99229.25;;;11.93;98.91
30897;BME280;64229;52.246;21.054;2023-04-25T02:58:30;99236.06;;;11.99;98.53
30897;BME280;64229;52.246;21.054;2023-04-25T03:00:55;99211.09;;;11.76;98.74
30897;BME280;64229;52.246;21.054;2023-04-25T03:03:21;99233.19;;;11.95;98.68
30897;BME280;64229;52.246;21.054;2023-04-25T03:05:52;99235.78;;;11.86;98.68
30897;BME280;64229;52.246;21.054;2023-04-25T03:08:18;99228.75;;;11.91;98.62
30897;BME280;64229;52.246;21.054;2023-04-25T03:10:44;99227.16;;;11.90;98.84
30897;BME280;64229;52.246;21.054;2023-04-25T03:13:10;99233.28;;;11.90;98.65
30897;BME280;64229;52.246;21.054;2023-04-25T03:15:36;99233.78;;;11.78;98.78
30897;BME280;64229;52.246;21.054;2023-04-25T03:18:01;99231.50;;;11.72;99.11
30897;BME280;64229;52.246;21.054;2023-04-25T03:20:27;99228.25;;;11.75;99.32
30897;BME280;64229;52.246;21.054;2023-04-25T03:22:53;99234.06;;;11.77;98.95
30897;BME280;64229;52.246;21.054;2023-04-25T03:25:18;99234.84;;;11.77;99.55
30897;BME280;64229;52.246;21.054;2023-04-25T03:27:43;99231.03;;;11.70;99.41
30897;BME280;64229;52.246;21.054;2023-04-25T03:30:09;99242.88;;;11.77;99.35
30897;BME280;64229;52.246;21.054;2023-04-25T03:32:34;99240.94;;;11.83;99.14
30897;BME280;64229;52.246;21.054;2023-04-25T03:35:00;99245.19;;;11.84;99.22
30897;BME280;64229;52.246;21.054;2023-04-25T03:37:25;99240.22;;;11.77;99.44
30897;BME280;64229;52.246;21.054;2023-04-25T03:39:51;99240.63;;;11.84;98.89
30897;BME280;64229;52.246;21.054;2023-04-25T03:42:16;99248.47;;;11.95;98.41
30897;BME280;64229;52.246;21.054;2023-04-25T03:44:42;99252.72;;;11.96;98.65
30897;BME280;64229;52.246;21.054;2023-04-25T03:47:07;99248.47;;;11.95;98.15
30897;BME280;64229;52.246;21.054;2023-04-25T03:49:33;99256.06;;;12.01;97.72
30897;BME280;64229;52.246;21.054;2023-04-25T03:51:59;99249.44;;;11.99;97.49
30897;BME280;64229;52.246;21.054;2023-04-25T03:54:25;99253.19;;;11.98;97.82
30897;BME280;64229;52.246;21.054;2023-04-25T03:56:50;99258.47;;;12.03;97.55
30897;BME280;64229;52.246;21.054;2023-04-25T03:59:15;99257.28;;;11.95;97.37
30897;BME280;64229;52.246;21.054;2023-04-25T04:01:41;99255.69;;;11.94;97.52
30897;BME280;64229;52.246;21.054;2023-04-25T04:04:06;99245.09;;;11.89;97.26
30897;BME280;64229;52.246;21.054;2023-04-25T04:06:31;99264.19;;;11.96;97.50
30897;BME280;64229;52.246;21.054;2023-04-25T04:08:57;99267.19;;;11.95;97.47
30897;BME280;64229;52.246;21.054;2023-04-25T04:11:22;99269.25;;;11.98;97.20
30897;BME280;64229;52.246;21.054;2023-04-25T04:13:47;99268.56;;;11.92;97.10
30897;BME280;64229;52.246;21.054;2023-04-25T04:16:13;99281.75;;;12.02;96.66
30897;BME280;64229;52.246;21.054;2023-04-25T04:18:38;99289.75;;;12.02;96.67
30897;BME280;64229;52.246;21.054;2023-04-25T04:21:03;99279.06;;;12.02;96.39
30897;BME280;64229;52.246;21.054;2023-04-25T04:23:29;99280.84;;;11.93;96.70
30897;BME280;64229;52.246;21.054;2023-04-25T04:25:54;99276.19;;;11.85;97.81
30897;BME280;64229;52.246;21.054;2023-04-25T04:28:20;99284.69;;;12.01;96.70
30897;BME280;64229;52.246;21.054;2023-04-25T04:30:46;99287.34;;;12.01;96.40
30897;BME280;64229;52.246;21.054;2023-04-25T04:33:12;99263.91;;;11.84;96.86
30897;BME280;64229;52.246;21.054;2023-04-25T04:35:37;99293.50;;;12.01;96.39
30897;BME280;64229;52.246;21.054;2023-04-25T04:38:03;99281.81;;;11.97;96.21
30897;BME280;64229;52.246;21.054;2023-04-25T04:40:29;99279.84;;;12.03;95.69
30897;BME280;64229;52.246;21.054;2023-04-25T04:42:56;99274.50;;;12.03;95.44
30897;BME280;64229;52.246;21.054;2023-04-25T04:45:22;99288.25;;;12.10;95.87
30897;BME280;64229;52.246;21.054;2023-04-25T04:47:48;99284.28;;;12.07;95.22
30897;BME280;64229;52.246;21.054;2023-04-25T04:50:13;99291.22;;;12.08;95.84
30897;BME280;64229;52.246;21.054;2023-04-25T04:52:40;99285.78;;;12.13;95.45
30897;BME280;64229;52.246;21.054;2023-04-25T04:55:06;99280.72;;;12.12;94.75
30897;BME280;64229;52.246;21.054;2023-04-25T04:57:31;99283.03;;;12.05;95.57
30897;BME280;64229;52.246;21.054;2023-04-25T04:59:58;99296.38;;;12.19;94.53
30897;BME280;64229;52.246;21.054;2023-04-25T05:02:24;99302.41;;;12.24;94.53
30897;BME280;64229;52.246;21.054;2023-04-25T05:04:50;99298.84;;;12.29;93.72
30897;BME280;64229;52.246;21.054;2023-04-25T05:07:17;99293.22;;;12.16;93.41
30897;BME280;64229;52.246;21.054;2023-04-25T05:09:42;99292.81;;;12.23;94.17
30897;BME280;64229;52.246;21.054;2023-04-25T05:12:07;99284.00;;;12.09;93.94
30897;BME280;64229;52.246;21.054;2023-04-25T05:14:33;99303.31;;;12.20;94.34
30897;BME280;64229;52.246;21.054;2023-04-25T05:16:58;99292.59;;;12.20;94.74
30897;BME280;64229;52.246;21.054;2023-04-25T05:19:23;99298.34;;;12.27;93.95
30897;BME280;64229;52.246;21.054;2023-04-25T05:21:49;99295.66;;;12.27;94.32
30897;BME280;64229;52.246;21.054;2023-04-25T05:24:14;99294.66;;;12.23;94.95
30897;BME280;64229;52.246;21.054;2023-04-25T05:26:40;99302.50;;;12.19;95.19
30897;BME280;64229;52.246;21.054;2023-04-25T05:29:05;99282.31;;;11.99;95.68
30897;BME280;64229;52.246;21.054;2023-04-25T05:31:31;99300.16;;;12.04;96.15
30897;BME280;64229;52.246;21.054;2023-04-25T05:33:57;99310.38;;;12.02;96.48
30897;BME280;64229;52.246;21.054;2023-04-25T05:36:22;99309.28;;;12.03;96.91
30897;BME280;64229;52.246;21.054;2023-04-25T05:38:48;99315.28;;;12.08;97.70
30897;BME280;64229;52.246;21.054;2023-04-25T05:41:13;99321.06;;;12.02;98.19
30897;BME280;64229;52.246;21.054;2023-04-25T05:43:38;99310.03;;;11.90;98.84
30897;BME280;64229;52.246;21.054;2023-04-25T05:46:04;99312.72;;;11.90;100.00
30897;BME280;64229;52.246;21.054;2023-04-25T05:48:29;99309.56;;;11.87;100.00
30897;BME280;64229;52.246;21.054;2023-04-25T05:50:55;99304.66;;;11.76;100.00
30897;BME280;64229;52.246;21.054;2023-04-25T05:53:20;99312.69;;;11.76;100.00
30897;BME280;64229;52.246;21.054;2023-04-25T05:55:47;99308.13;;;11.76;100.00
30897;BME280;64229;52.246;21.054;2023-04-25T05:58:12;99313.78;;;11.75;100.00
30897;BME280;64229;52.246;21.054;2023-04-25T06:00:38;99314.16;;;11.68;100.00
30897;BME280;64229;52.246;21.054;2023-04-25T06:03:03;99317.78;;;11.58;100.00
30897;BME280;64229;52.246;21.054;2023-04-25T06:05:29;99310.59;;;11.59;100.00
30897;BME280;64229;52.246;21.054;2023-04-25T06:07:54;99307.03;;;11.64;100.00
30897;BME280;64229;52.246;21.054;2023-04-25T06:10:20;99318.03;;;11.62;100.00
30897;BME280;64229;52.246;21.054;2023-04-25T06:12:46;99320.22;;;11.74;100.00
30897;BME280;64229;52.246;21.054;2023-04-25T06:15:11;99326.34;;;11.74;100.00
30897;BME280;64229;52.246;21.054;2023-04-25T06:17:36;99328.91;;;11.66;100.00
30897;BME280;64229;52.246;21.054;2023-04-25T06:20:02;99317.22;;;11.62;100.00
30897;BME280;64229;52.246;21.054;2023-04-25T06:22:29;99323.56;;;11.66;100.00
30897;BME280;64229;52.246;21.054;2023-04-25T06:24:54;99329.09;;;11.69;100.00
30897;BME280;64229;52.246;21.054;2023-04-25T06:27:22;99338.19;;;11.54;100.00
30897;BME280;64229;52.246;21.054;2023-04-25T06:29:47;99342.75;;;11.54;100.00
30897;BME280;64229;52.246;21.054;2023-04-25T06:32:13;99349.34;;;11.43;100.00
30897;BME280;64229;52.246;21.054;2023-04-25T06:34:38;99362.28;;;11.36;100.00
30897;BME280;64229;52.246;21.054;2023-04-25T06:37:03;99364.56;;;11.28;100.00
30897;BME280;64229;52.246;21.054;2023-04-25T06:39:28;99380.44;;;11.20;100.00
30897;BME280;64229;52.246;21.054;2023-04-25T06:41:54;99377.81;;;11.15;100.00
30897;BME280;64229;52.246;21.054;2023-04-25T06:44:19;99379.56;;;11.06;100.00
30897;BME280;64229;52.246;21.054;2023-04-25T06:46:45;99380.25;;;10.97;100.00
30897;BME280;64229;52.246;21.054;2023-04-25T06:49:10;99378.78;;;11.05;100.00
30897;BME280;64229;52.246;21.054;2023-04-25T06:51:35;99372.56;;;11.10;100.00
30897;BME280;64229;52.246;21.054;2023-04-25T06:54:00;99370.41;;;11.12;100.00
30897;BME280;64229;52.246;21.054;2023-04-25T06:56:26;99348.84;;;11.08;100.00
30897;BME280;64229;52.246;21.054;2023-04-25T06:58:53;99344.28;;;11.09;100.00
30897;BME280;64229;52.246;21.054;2023-04-25T07:01:18;99354.47;;;10.88;100.00
30897;BME280;64229;52.246;21.054;2023-04-25T07:03:43;99342.28;;;10.82;100.00
30897;BME280;64229;52.246;21.054;2023-04-25T07:06:09;99348.69;;;10.81;100.00
30897;BME280;64229;52.246;21.054;2023-04-25T07:08:34;99357.34;;;10.72;100.00
30897;BME280;64229;52.246;21.054;2023-04-25T07:10:59;99341.09;;;10.50;100.00
30897;BME280;64229;52.246;21.054;2023-04-25T07:13:25;99359.72;;;10.55;100.00
30897;BME280;64229;52.246;21.054;2023-04-25T07:15:50;99357.56;;;10.57;100.00
30897;BME280;64229;52.246;21.054;2023-04-25T07:18:15;99360.09;;;10.67;100.00
30897;BME280;64229;52.246;21.054;2023-04-25T07:20:41;99366.44;;;10.90;100.00
30897;BME280;64229;52.246;21.054;2023-04-25T07:23:06;99364.78;;;10.94;100.00
30897;BME280;64229;52.246;21.054;2023-04-25T07:25:31;99359.22;;;11.10;100.00
30897;BME280;64229;52.246;21.054;2023-04-25T07:27:57;99357.38;;;11.24;100.00
30897;BME280;64229;52.246;21.054;2023-04-25T07:30:22;99366.84;;;11.35;100.00
30897;BME280;64229;52.246;21.054;2023-04-25T07:32:49;99363.94;;;11.50;99.67
30897;BME280;64229;52.246;21.054;2023-04-25T07:35:16;99355.13;;;11.50;98.66
30897;BME280;64229;52.246;21.054;2023-04-25T07:37:41;99361.25;;;11.50;97.89
30897;BME280;64229;52.246;21.054;2023-04-25T07:40:07;99368.25;;;11.46;97.32
30897;BME280;64229;52.246;21.054;2023-04-25T07:42:34;99366.91;;;11.49;96.87
30897;BME280;64229;52.246;21.054;2023-04-25T07:45:00;99369.84;;;11.47;96.35
30897;BME280;64229;52.246;21.054;2023-04-25T07:47:26;99371.50;;;11.43;95.81
30897;BME280;64229;52.246;21.054;2023-04-25T07:49:51;99375.69;;;11.49;96.78
30897;BME280;64229;52.246;21.054;2023-04-25T07:52:17;99376.59;;;11.58;96.64
30897;BME280;64229;52.246;21.054;2023-04-25T07:54:42;99357.50;;;11.65;96.44
30897;BME280;64229;52.246;21.054;2023-04-25T07:57:07;99371.44;;;11.81;95.15
30897;BME280;64229;52.246;21.054;2023-04-25T07:59:33;99374.81;;;11.86;94.58
30897;BME280;64229;52.246;21.054;2023-04-25T08:01:59;99365.31;;;11.94;94.04
30897;BME280;64229;52.246;21.054;2023-04-25T08:04:25;99366.13;;;12.08;92.75
30897;BME280;64229;52.246;21.054;2023-04-25T08:06:51;99368.72;;;12.13;90.91
30897;BME280;64229;52.246;21.054;2023-04-25T08:09:17;99368.41;;;12.15;90.41
30897;BME280;64229;52.246;21.054;2023-04-25T08:11:42;99385.44;;;12.33;91.80
30897;BME280;64229;52.246;21.054;2023-04-25T08:14:08;99382.28;;;12.44;89.72
30897;BME280;64229;52.246;21.054;2023-04-25T08:16:33;99382.84;;;12.55;90.02
30897;BME280;64229;52.246;21.054;2023-04-25T08:18:59;99382.16;;;12.22;87.28
30897;BME280;64229;52.246;21.054;2023-04-25T08:21:25;99388.59;;;12.21;88.51
30897;BME280;64229;52.246;21.054;2023-04-25T08:23:52;99394.16;;;12.25;87.95
30897;BME280;64229;52.246;21.054;2023-04-25T08:26:18;99384.03;;;12.22;88.71
30897;BME280;64229;52.246;21.054;2023-04-25T08:28:43;99402.97;;;12.53;86.44
30897;BME280;64229;52.246;21.054;2023-04-25T08:31:08;99397.72;;;12.61;86.61
30897;BME280;64229;52.246;21.054;2023-04-25T08:33:33;99402.19;;;12.66;84.55
30897;BME280;64229;52.246;21.054;2023-04-25T08:35:59;99402.06;;;12.71;84.20
30897;BME280;64229;52.246;21.054;2023-04-25T08:38:24;99401.88;;;12.67;83.47
30897;BME280;64229;52.246;21.054;2023-04-25T08:40:50;99406.25;;;12.36;83.75
30897;BME280;64229;52.246;21.054;2023-04-25T08:43:19;99407.81;;;12.09;84.97
30897;BME280;64229;52.246;21.054;2023-04-25T08:45:45;99396.50;;;11.99;86.30
30897;BME280;64229;52.246;21.054;2023-04-25T08:48:13;99407.31;;;11.94;86.64
30897;BME280;64229;52.246;21.054;2023-04-25T08:50:54;99415.84;;;11.96;87.38
30897;BME280;64229;52.246;21.054;2023-04-25T08:53:25;99431.09;;;11.76;87.55
30897;BME280;64229;52.246;21.054;2023-04-25T08:55:50;99436.31;;;11.68;88.15
30897;BME280;64229;52.246;21.054;2023-04-25T08:58:18;99433.53;;;11.59;87.09
30897;BME280;64229;52.246;21.054;2023-04-25T09:00:46;99434.41;;;11.54;86.89
30897;BME280;64229;52.246;21.054;2023-04-25T09:03:12;99445.88;;;11.55;87.79
30897;BME280;64229;52.246;21.054;2023-04-25T09:05:37;99448.34;;;11.51;88.18
30897;BME280;64229;52.246;21.054;2023-04-25T09:08:05;99442.84;;;11.62;87.60
30897;BME280;64229;52.246;21.054;2023-04-25T09:10:30;99441.25;;;11.61;86.15
30897;BME280;64229;52.246;21.054;2023-04-25T09:13:10;99438.50;;;11.47;86.40
30897;BME280;64229;52.246;21.054;2023-04-25T09:15:52;99439.69;;;11.41;85.84
30897;BME280;64229;52.246;21.054;2023-04-25T09:18:31;99445.81;;;11.41;86.93
30897;BME280;64229;52.246;21.054;2023-04-25T09:21:04;99441.34;;;11.37;87.22
30897;BME280;64229;52.246;21.054;2023-04-25T09:23:39;99445.47;;;11.29;88.64
30897;BME280;64229;52.246;21.054;2023-04-25T09:26:06;99427.56;;;11.11;90.46
30897;BME280;64229;52.246;21.054;2023-04-25T09:28:32;99447.78;;;11.17;91.12
30897;BME280;64229;52.246;21.054;2023-04-25T09:30:57;99434.78;;;10.91;91.31
30897;BME280;64229;52.246;21.054;2023-04-25T09:33:32;99461.03;;;11.03;91.23
30897;BME280;64229;52.246;21.054;2023-04-25T09:36:05;99461.34;;;11.01;91.36
30897;BME280;64229;52.246;21.054;2023-04-25T09:38:32;99463.56;;;10.94;92.58
30897;BME280;64229;52.246;21.054;2023-04-25T09:40:58;99476.56;;;11.01;92.58
30897;BME280;64229;52.246;21.054;2023-04-25T09:43:24;99479.66;;;10.89;92.73
30897;BME280;64229;52.246;21.054;2023-04-25T09:45:51;99479.66;;;10.89;93.36
30897;BME280;64229;52.246;21.054;2023-04-25T09:48:26;99472.06;;;10.78;94.28
30897;BME280;64229;52.246;21.054;2023-04-25T09:51:04;99484.31;;;10.79;94.14
30897;BME280;64229;52.246;21.054;2023-04-25T09:53:31;99468.53;;;10.82;94.36
30897;BME280;64229;52.246;21.054;2023-04-25T09:55:59;99484.63;;;10.77;94.48
30897;BME280;64229;52.246;21.054;2023-04-25T09:58:25;99478.22;;;10.97;93.77
30897;BME280;64229;52.246;21.054;2023-04-25T10:00:54;99486.47;;;11.00;94.21
30897;BME280;64229;52.246;21.054;2023-04-25T10:03:22;99481.84;;;11.06;93.30
30897;BME280;64229;52.246;21.054;2023-04-25T10:05:50;99483.88;;;11.14;90.61
30897;BME280;64229;52.246;21.054;2023-04-25T10:08:17;99483.50;;;11.02;90.53
30897;BME280;64229;52.246;21.054;2023-04-25T10:10:44;99464.63;;;10.93;91.60
30897;BME280;64229;52.246;21.054;2023-04-25T10:13:11;99476.47;;;10.87;91.43
30897;BME280;64229;52.246;21.054;2023-04-25T10:15:36;99472.06;;;10.78;92.53
30897;BME280;64229;52.246;21.054;2023-04-25T10:18:02;99476.25;;;10.84;93.99
30897;BME280;64229;52.246;21.054;2023-04-25T10:20:29;99485.16;;;10.98;92.49
30897;BME280;64229;52.246;21.054;2023-04-25T10:22:58;99483.28;;;10.98;92.39
30897;BME280;64229;52.246;21.054;2023-04-25T10:25:27;99481.69;;;10.97;92.94
30897;BME280;64229;52.246;21.054;2023-04-25T10:27:53;99489.88;;;11.06;91.75
30897;BME280;64229;52.246;21.054;2023-04-25T10:30:18;99483.28;;;10.98;92.31
30897;BME280;64229;52.246;21.054;2023-04-25T10:32:44;99482.31;;;10.89;92.77
30897;BME280;64229;52.246;21.054;2023-04-25T10:35:24;99491.50;;;11.02;93.14
30897;BME280;64229;52.246;21.054;2023-04-25T10:38:11;99492.25;;;11.08;91.87
30897;BME280;64229;52.246;21.054;2023-04-25T10:40:37;99473.41;;;10.99;92.01
30897;BME280;64229;52.246;21.054;2023-04-25T10:45:56;99486.53;;;10.95;92.34
30897;BME280;64229;52.246;21.054;2023-04-25T10:48:25;99490.25;;;10.94;92.96
30897;BME280;64229;52.246;21.054;2023-04-25T10:51:07;99497.47;;;10.94;92.84
30897;BME280;64229;52.246;21.054;2023-04-25T10:53:33;99495.16;;;10.87;92.07
30897;BME280;64229;52.246;21.054;2023-04-25T10:55:59;99489.59;;;10.84;92.35
30897;BME280;64229;52.246;21.054;2023-04-25T10:58:24;99492.38;;;10.97;91.92
30897;BME280;64229;52.246;21.054;2023-04-25T11:00:50;99490.25;;;10.94;92.37
30897;BME280;64229;52.246;21.054;2023-04-25T11:03:16;99495.28;;;11.20;92.29
30897;BME280;64229;52.246;21.054;2023-04-25T11:05:44;99483.72;;;11.24;91.12
30897;BME280;64229;52.246;21.054;2023-04-25T11:08:11;99496.34;;;11.38;90.18
30897;BME280;64229;52.246;21.054;2023-04-25T11:10:37;99490.75;;;11.39;90.58
30897;BME280;64229;52.246;21.054;2023-04-25T11:13:05;99496.50;;;11.46;89.99
30897;BME280;64229;52.246;21.054;2023-04-25T11:15:30;99494.84;;;11.50;88.52
30897;BME280;64229;52.246;21.054;2023-04-25T11:17:55;99501.06;;;11.46;88.10
30897;BME280;64229;52.246;21.054;2023-04-25T11:20:21;99502.28;;;11.35;86.70
30897;BME280;64229;52.246;21.054;2023-04-25T11:22:47;99498.91;;;11.29;85.26
30897;BME280;64229;52.246;21.054;2023-04-25T11:25:15;99505.38;;;11.23;85.02
30897;BME280;64229;52.246;21.054;2023-04-25T11:27:57;99491.81;;;11.19;84.14
30897;BME280;64229;52.246;21.054;2023-04-25T11:30:24;99498.81;;;11.15;84.34
30897;BME280;64229;52.246;21.054;2023-04-25T11:32:51;99494.00;;;11.17;84.97
30897;BME280;64229;52.246;21.054;2023-04-25T11:35:18;99497.88;;;11.25;84.00
30897;BME280;64229;52.246;21.054;2023-04-25T11:37:43;99492.91;;;11.18;84.38
30897;BME280;64229;52.246;21.054;2023-04-25T11:40:10;99493.28;;;11.30;84.21
30897;BME280;64229;52.246;21.054;2023-04-25T11:42:43;99478.31;;;11.29;84.08
30897;BME280;64229;52.246;21.054;2023-04-25T11:45:09;99501.94;;;11.41;83.32
30897;BME280;64229;52.246;21.054;2023-04-25T11:47:34;99501.06;;;11.46;82.49
30897;BME280;64229;52.246;21.054;2023-04-25T11:50:04;99499.75;;;11.43;82.21
30897;BME280;64229;52.246;21.054;2023-04-25T11:52:43;99494.91;;;11.45;83.06
30897;BME280;64229;52.246;21.054;2023-04-25T11:55:12;99497.16;;;11.57;82.54
30897;BME280;64229;52.246;21.054;2023-04-25T11:57:39;99492.91;;;11.56;82.05
30897;BME280;64229;52.246;21.054;2023-04-25T12:00:13;99500.50;;;11.49;81.96
30897;BME280;64229;52.246;21.054;2023-04-25T12:02:44;99489.81;;;11.49;81.20
30897;BME280;64229;52.246;21.054;2023-04-25T12:05:11;99494.50;;;11.38;81.21
30897;BME280;64229;52.246;21.054;2023-04-25T12:07:37;99472.97;;;11.29;81.51
30897;BME280;64229;52.246;21.054;2023-04-25T12:10:11;99495.81;;;11.41;81.22
30897;BME280;64229;52.246;21.054;2023-04-25T12:12:38;99490.81;;;11.34;81.99
30897;BME280;64229;52.246;21.054;2023-04-25T12:15:17;99494.50;;;11.38;82.17
30897;BME280;64229;52.246;21.054;2023-04-25T12:17:52;99486.53;;;11.33;82.36
30897;BME280;64229;52.246;21.054;2023-04-25T12:20:24;99494.50;;;11.38;82.32
30897;BME280;64229;52.246;21.054;2023-04-25T12:22:51;99494.56;;;11.52;81.29
30897;BME280;64229;52.246;21.054;2023-04-25T12:28:24;99494.91;;;11.64;80.30
30897;BME280;64229;52.246;21.054;2023-04-25T12:33:18;99488.47;;;11.65;78.24
30897;BME280;64229;52.246;21.054;2023-04-25T12:35:44;99494.78;;;11.55;78.51
30897;BME280;64229;52.246;21.054;2023-04-25T12:38:09;99475.56;;;11.53;77.67
30897;BME280;64229;52.246;21.054;2023-04-25T12:40:35;99492.84;;;11.61;76.61
30897;BME280;64229;52.246;21.054;2023-04-25T12:43:01;99495.81;;;11.59;76.87
30897;BME280;64229;52.246;21.054;2023-04-25T12:45:26;99492.59;;;11.57;77.14
30897;BME280;64229;52.246;21.054;2023-04-25T12:47:51;99486.59;;;11.66;77.10
30897;BME280;64229;52.246;21.054;2023-04-25T12:50:17;99491.19;;;11.79;76.62
30897;BME280;64229;52.246;21.054;2023-04-25T12:52:42;99492.09;;;11.74;76.05